MIDDLE PEAK RAWS NEAR KENTFIELD 2SW HADS current weather conditions

sailwx.info

Wind from 345 at 25 knots gusting 38

Air temperature 11.7° C
Dewpoint -10.5° C

Last reported at 2017-Dec-16 21:36 UTC.
Time now 2017-Dec-16 22:26 UTC

Location: N 37°56' W 122°35'.
View on Google Maps.

See reports from other nearby stations

  
Tides and Currents Weather Stations Pressure Air Temp Water Temp Dewpoint Dewpoint Depression Visibility Wind Speed Wind Dir Waves Ship Positions
date/time (UTC)wind fromknots sea level pressurealtimeterstation pressurevisibilityair tempwater tempwave heightnotes
2017-Dec-16 21:36 345 25 gusting 38 11.7
2017-Dec-16 20:36 342 26 gusting 38 10.6
2017-Dec-16 19:36 339 21 gusting 30 10.6
2017-Dec-16 18:36 354 16 gusting 44 10.6
2017-Dec-16 17:36 344 27 gusting 46 8.9
2017-Dec-16 16:36 342 29 gusting 44 7.8
2017-Dec-16 15:36 346 29 gusting 42 7.8
2017-Dec-16 14:36 343 24 gusting 36 7.2
2017-Dec-16 13:36 338 21 gusting 35 7.2
2017-Dec-16 12:36 340 19 gusting 29 6.1
2017-Dec-16 11:36 334 19 gusting 29 7.2
2017-Dec-16 10:36 339 15 gusting 27 7.8
2017-Dec-16 09:36 335 19 gusting 30 8.3
2017-Dec-16 08:36 338 20 gusting 34 8.9
2017-Dec-16 07:36 337 19 gusting 31 9.4
2017-Dec-16 06:36 336 17 gusting 26 10.6
2017-Dec-16 05:36 339 17 gusting 25 10.0
2017-Dec-16 04:36 341 16 gusting 23 10.6
2017-Dec-16 03:36 336 13 gusting 21 11.1
2017-Dec-16 02:36 330 12 gusting 19 12.2
2017-Dec-16 01:36 330 12 gusting 18 11.1
2017-Dec-16 00:36 330 10 gusting 16 11.1
2017-Dec-15 23:36 328 6 gusting 11 12.2
2017-Dec-15 22:36 323 7 gusting 11 14.4
2017-Dec-15 21:36 325 6 gusting 11 15.0
2017-Dec-15 20:36 336 6 gusting 10 17.2
2017-Dec-15 19:36 354 5 gusting 9 17.2
2017-Dec-15 18:36 339 2 gusting 4 17.8
2017-Dec-15 17:36 339 1 gusting 7 18.9
2017-Dec-15 16:36 041 4 gusting 11 15.0
2017-Dec-15 15:36 051 6 gusting 13 15.0
2017-Dec-15 14:36 050 6 gusting 13 13.3
2017-Dec-15 13:36 049 9 gusting 13 12.2
2017-Dec-15 12:36 054 8 gusting 13 11.7
2017-Dec-15 11:36 050 8 gusting 13 11.7
2017-Dec-15 10:36 053 10 gusting 13 11.1
2017-Dec-15 09:36 062 7 gusting 11 11.7
2017-Dec-15 08:36 043 6 gusting 12 12.8
2017-Dec-15 07:36 058 7 gusting 11 13.3
2017-Dec-15 06:36 040 6 gusting 10 15.0
2017-Dec-15 05:36 027 6 gusting 9 15.0
2017-Dec-15 04:36 024 6 gusting 11 15.0
2017-Dec-15 03:36 053 7 gusting 12 15.6
2017-Dec-15 02:36 039 6 gusting 9 15.6
2017-Dec-15 01:36 045 6 gusting 10 16.7
2017-Dec-15 00:36 038 6 gusting 10 16.1